sensor_id;sensor_type;location;lat;lon;timestamp;temperature;humidity
12520;DHT22;6325;49.540;8.364;2023-04-03T00:00:29;5.90;99.90
12520;DHT22;6325;49.540;8.364;2023-04-03T00:02:57;5.80;99.90
12520;DHT22;6325;49.540;8.364;2023-04-03T00:05:23;5.30;99.90
12520;DHT22;6325;49.540;8.364;2023-04-03T00:07:50;5.60;99.90
12520;DHT22;6325;49.540;8.364;2023-04-03T00:10:18;5.70;99.90
12520;DHT22;6325;49.540;8.364;2023-04-03T00:12:46;5.50;99.90
12520;DHT22;6325;49.540;8.364;2023-04-03T00:15:13;4.70;99.90
12520;DHT22;6325;49.540;8.364;2023-04-03T00:17:39;5.20;99.90
12520;DHT22;6325;49.540;8.364;2023-04-03T00:20:07;5.20;99.90
12520;DHT22;6325;49.540;8.364;2023-04-03T00:22:34;5.20;99.90
12520;DHT22;6325;49.540;8.364;2023-04-03T00:25:01;5.50;99.90
12520;DHT22;6325;49.540;8.364;2023-04-03T00:27:28;4.40;99.90
12520;DHT22;6325;49.540;8.364;2023-04-03T00:29:57;4.60;99.90
12520;DHT22;6325;49.540;8.364;2023-04-03T00:32:26;5.00;99.90
12520;DHT22;6325;49.540;8.364;2023-04-03T00:34:53;4.90;99.90
12520;DHT22;6325;49.540;8.364;2023-04-03T00:37:20;4.70;99.90
12520;DHT22;6325;49.540;8.364;2023-04-03T00:39:47;4.90;99.90
12520;DHT22;6325;49.540;8.364;2023-04-03T00:42:14;5.00;99.90
12520;DHT22;6325;49.540;8.364;2023-04-03T00:45:24;5.00;99.90
12520;DHT22;6325;49.540;8.364;2023-04-03T00:47:51;4.70;99.90
12520;DHT22;6325;49.540;8.364;2023-04-03T00:50:18;4.50;99.90
12520;DHT22;6325;49.540;8.364;2023-04-03T00:52:45;4.60;99.90
12520;DHT22;6325;49.540;8.364;2023-04-03T00:55:15;4.80;99.90
12520;DHT22;6325;49.540;8.364;2023-04-03T00:57:42;4.60;99.90
12520;DHT22;6325;49.540;8.364;2023-04-03T01:00:13;5.10;99.90
12520;DHT22;6325;49.540;8.364;2023-04-03T01:02:43;4.50;99.90
12520;DHT22;6325;49.540;8.364;2023-04-03T01:05:10;4.30;99.90
12520;DHT22;6325;49.540;8.364;2023-04-03T01:07:38;4.40;99.90
12520;DHT22;6325;49.540;8.364;2023-04-03T01:10:08;4.30;99.90
12520;DHT22;6325;49.540;8.364;2023-04-03T01:12:37;4.20;99.90
12520;DHT22;6325;49.540;8.364;2023-04-03T01:15:06;4.30;99.90
12520;DHT22;6325;49.540;8.364;2023-04-03T01:17:36;4.20;99.90
12520;DHT22;6325;49.540;8.364;2023-04-03T01:20:31;4.30;99.90
12520;DHT22;6325;49.540;8.364;2023-04-03T01:23:12;3.80;99.90
12520;DHT22;6325;49.540;8.364;2023-04-03T01:25:46;3.70;99.90
12520;DHT22;6325;49.540;8.364;2023-04-03T01:28:16;4.50;99.90
12520;DHT22;6325;49.540;8.364;2023-04-03T01:30:48;3.20;99.90
12520;DHT22;6325;49.540;8.364;2023-04-03T01:33:18;4.00;99.90
12520;DHT22;6325;49.540;8.364;2023-04-03T01:35:45;4.30;99.90
12520;DHT22;6325;49.540;8.364;2023-04-03T01:38:12;3.80;99.90
12520;DHT22;6325;49.540;8.364;2023-04-03T01:40:39;3.50;99.90
12520;DHT22;6325;49.540;8.364;2023-04-03T01:43:06;4.10;99.90
12520;DHT22;6325;49.540;8.364;2023-04-03T01:45:33;4.10;99.90
12520;DHT22;6325;49.540;8.364;2023-04-03T01:48:00;3.70;99.90
12520;DHT22;6325;49.540;8.364;2023-04-03T01:50:29;4.20;99.90
12520;DHT22;6325;49.540;8.364;2023-04-03T01:52:56;4.40;99.90
12520;DHT22;6325;49.540;8.364;2023-04-03T01:55:23;4.50;99.90
12520;DHT22;6325;49.540;8.364;2023-04-03T01:57:50;4.50;99.90
12520;DHT22;6325;49.540;8.364;2023-04-03T02:00:17;4.00;99.90
12520;DHT22;6325;49.540;8.364;2023-04-03T02:02:44;4.30;99.90
12520;DHT22;6325;49.540;8.364;2023-04-03T02:05:11;4.70;99.90
12520;DHT22;6325;49.540;8.364;2023-04-03T02:07:39;4.00;99.90
12520;DHT22;6325;49.540;8.364;2023-04-03T02:10:06;4.30;99.90
12520;DHT22;6325;49.540;8.364;2023-04-03T02:12:33;4.20;99.90
12520;DHT22;6325;49.540;8.364;2023-04-03T02:15:00;3.40;99.90
12520;DHT22;6325;49.540;8.364;2023-04-03T02:17:26;3.40;99.90
12520;DHT22;6325;49.540;8.364;2023-04-03T02:19:53;4.10;99.90
12520;DHT22;6325;49.540;8.364;2023-04-03T02:22:20;4.30;99.90
12520;DHT22;6325;49.540;8.364;2023-04-03T02:24:49;4.10;99.90
12520;DHT22;6325;49.540;8.364;2023-04-03T02:27:17;4.20;99.90
12520;DHT22;6325;49.540;8.364;2023-04-03T02:29:44;3.90;99.90
12520;DHT22;6325;49.540;8.364;2023-04-03T02:32:11;4.10;99.90
12520;DHT22;6325;49.540;8.364;2023-04-03T02:34:37;4.00;99.90
12520;DHT22;6325;49.540;8.364;2023-04-03T02:37:04;4.00;99.90
12520;DHT22;6325;49.540;8.364;2023-04-03T02:39:31;4.00;99.90
12520;DHT22;6325;49.540;8.364;2023-04-03T02:42:00;4.20;99.90
12520;DHT22;6325;49.540;8.364;2023-04-03T02:44:27;4.00;99.90
12520;DHT22;6325;49.540;8.364;2023-04-03T02:46:53;4.10;99.90
12520;DHT22;6325;49.540;8.364;2023-04-03T02:49:20;4.30;99.90
12520;DHT22;6325;49.540;8.364;2023-04-03T02:51:47;4.20;99.90
12520;DHT22;6325;49.540;8.364;2023-04-03T02:54:14;3.70;99.90
12520;DHT22;6325;49.540;8.364;2023-04-03T02:56:42;4.20;99.90
12520;DHT22;6325;49.540;8.364;2023-04-03T02:59:10;3.80;99.90
12520;DHT22;6325;49.540;8.364;2023-04-03T03:01:37;3.80;99.90
12520;DHT22;6325;49.540;8.364;2023-04-03T03:04:04;4.10;99.90
12520;DHT22;6325;49.540;8.364;2023-04-03T03:06:30;3.20;99.90
12520;DHT22;6325;49.540;8.364;2023-04-03T03:08:57;4.40;99.90
12520;DHT22;6325;49.540;8.364;2023-04-03T03:11:25;3.80;99.90
12520;DHT22;6325;49.540;8.364;2023-04-03T03:13:51;3.80;99.90
12520;DHT22;6325;49.540;8.364;2023-04-03T03:16:20;3.10;99.90
12520;DHT22;6325;49.540;8.364;2023-04-03T03:18:46;3.60;99.90
12520;DHT22;6325;49.540;8.364;2023-04-03T03:21:14;4.20;99.90
12520;DHT22;6325;49.540;8.364;2023-04-03T03:23:41;4.00;99.90
12520;DHT22;6325;49.540;8.364;2023-04-03T03:26:09;4.00;99.90
12520;DHT22;6325;49.540;8.364;2023-04-03T03:28:38;4.00;99.90
12520;DHT22;6325;49.540;8.364;2023-04-03T03:31:05;3.60;99.90
12520;DHT22;6325;49.540;8.364;2023-04-03T03:33:34;3.40;99.90
12520;DHT22;6325;49.540;8.364;2023-04-03T03:36:01;3.50;99.90
12520;DHT22;6325;49.540;8.364;2023-04-03T03:38:27;4.10;99.90
12520;DHT22;6325;49.540;8.364;2023-04-03T03:40:54;3.50;99.90
12520;DHT22;6325;49.540;8.364;2023-04-03T03:43:21;3.70;99.90
12520;DHT22;6325;49.540;8.364;2023-04-03T03:45:50;3.80;99.90
12520;DHT22;6325;49.540;8.364;2023-04-03T03:48:18;4.00;99.90
12520;DHT22;6325;49.540;8.364;2023-04-03T03:50:48;3.60;99.90
12520;DHT22;6325;49.540;8.364;2023-04-03T03:53:15;3.90;99.90
12520;DHT22;6325;49.540;8.364;2023-04-03T03:55:42;3.30;99.90
12520;DHT22;6325;49.540;8.364;2023-04-03T03:58:09;3.50;99.90
12520;DHT22;6325;49.540;8.364;2023-04-03T04:00:36;3.40;99.90
12520;DHT22;6325;49.540;8.364;2023-04-03T04:03:03;2.90;99.90
12520;DHT22;6325;49.540;8.364;2023-04-03T04:05:30;3.70;99.90
12520;DHT22;6325;49.540;8.364;2023-04-03T04:07:58;3.00;99.90
12520;DHT22;6325;49.540;8.364;2023-04-03T04:10:25;3.80;99.90
12520;DHT22;6325;49.540;8.364;2023-04-03T04:12:52;3.80;99.90
12520;DHT22;6325;49.540;8.364;2023-04-03T04:15:19;3.60;99.90
12520;DHT22;6325;49.540;8.364;2023-04-03T04:17:47;3.60;99.90
12520;DHT22;6325;49.540;8.364;2023-04-03T04:20:14;2.70;99.90
12520;DHT22;6325;49.540;8.364;2023-04-03T04:22:41;3.20;99.90
12520;DHT22;6325;49.540;8.364;2023-04-03T04:25:09;3.20;99.90
12520;DHT22;6325;49.540;8.364;2023-04-03T04:27:37;3.20;99.90
12520;DHT22;6325;49.540;8.364;2023-04-03T04:30:04;3.20;99.90
12520;DHT22;6325;49.540;8.364;2023-04-03T04:32:32;3.20;99.90
12520;DHT22;6325;49.540;8.364;2023-04-03T04:34:59;3.40;99.90
12520;DHT22;6325;49.540;8.364;2023-04-03T04:37:26;3.20;99.90
12520;DHT22;6325;49.540;8.364;2023-04-03T04:39:53;3.30;99.90
12520;DHT22;6325;49.540;8.364;2023-04-03T04:42:21;3.30;99.90
12520;DHT22;6325;49.540;8.364;2023-04-03T04:44:48;3.00;99.90
12520;DHT22;6325;49.540;8.364;2023-04-03T04:47:15;3.20;99.90
12520;DHT22;6325;49.540;8.364;2023-04-03T04:49:42;3.00;99.90
12520;DHT22;6325;49.540;8.364;2023-04-03T04:52:09;3.40;99.90
12520;DHT22;6325;49.540;8.364;2023-04-03T04:54:36;3.30;99.90
12520;DHT22;6325;49.540;8.364;2023-04-03T04:57:03;2.70;99.90
12520;DHT22;6325;49.540;8.364;2023-04-03T04:59:32;2.80;99.90
12520;DHT22;6325;49.540;8.364;2023-04-03T05:01:59;2.80;99.90
12520;DHT22;6325;49.540;8.364;2023-04-03T05:04:26;2.90;99.90
12520;DHT22;6325;49.540;8.364;2023-04-03T05:06:53;3.20;99.90
12520;DHT22;6325;49.540;8.364;2023-04-03T05:09:19;3.20;99.90
12520;DHT22;6325;49.540;8.364;2023-04-03T05:11:46;2.60;99.90
12520;DHT22;6325;49.540;8.364;2023-04-03T05:14:13;3.50;99.90
12520;DHT22;6325;49.540;8.364;2023-04-03T05:16:41;3.50;99.90
12520;DHT22;6325;49.540;8.364;2023-04-03T05:19:08;2.60;99.90
12520;DHT22;6325;49.540;8.364;2023-04-03T05:21:35;3.60;99.90
12520;DHT22;6325;49.540;8.364;2023-04-03T05:24:02;3.40;99.90
12520;DHT22;6325;49.540;8.364;2023-04-03T05:26:29;2.90;99.90
12520;DHT22;6325;49.540;8.364;2023-04-03T05:28:57;3.00;99.90
12520;DHT22;6325;49.540;8.364;2023-04-03T05:31:23;2.70;99.90
12520;DHT22;6325;49.540;8.364;2023-04-03T05:33:52;3.40;99.90
12520;DHT22;6325;49.540;8.364;2023-04-03T05:36:18;3.00;99.90
12520;DHT22;6325;49.540;8.364;2023-04-03T05:38:45;3.10;99.90
12520;DHT22;6325;49.540;8.364;2023-04-03T05:41:12;3.00;99.90
12520;DHT22;6325;49.540;8.364;2023-04-03T05:43:39;3.40;99.90
12520;DHT22;6325;49.540;8.364;2023-04-03T05:46:09;3.20;99.90
12520;DHT22;6325;49.540;8.364;2023-04-03T05:48:36;3.20;99.90
12520;DHT22;6325;49.540;8.364;2023-04-03T05:51:06;4.00;99.90
12520;DHT22;6325;49.540;8.364;2023-04-03T05:53:35;3.40;99.90
12520;DHT22;6325;49.540;8.364;2023-04-03T05:56:03;3.50;99.90
12520;DHT22;6325;49.540;8.364;2023-04-03T05:58:30;3.60;99.90
12520;DHT22;6325;49.540;8.364;2023-04-03T06:00:57;3.90;99.90
12520;DHT22;6325;49.540;8.364;2023-04-03T06:03:24;2.90;99.90
12520;DHT22;6325;49.540;8.364;2023-04-03T06:05:51;3.50;99.90
12520;DHT22;6325;49.540;8.364;2023-04-03T06:08:20;4.20;99.90
12520;DHT22;6325;49.540;8.364;2023-04-03T06:10:47;4.00;99.90
12520;DHT22;6325;49.540;8.364;2023-04-03T06:13:14;3.70;99.90
12520;DHT22;6325;49.540;8.364;2023-04-03T06:15:41;4.30;99.90
12520;DHT22;6325;49.540;8.364;2023-04-03T06:18:07;4.10;99.90
12520;DHT22;6325;49.540;8.364;2023-04-03T06:20:35;4.10;99.90
12520;DHT22;6325;49.540;8.364;2023-04-03T06:23:02;3.80;99.90
12520;DHT22;6325;49.540;8.364;2023-04-03T06:25:30;4.40;99.90
12520;DHT22;6325;49.540;8.364;2023-04-03T06:27:57;4.70;99.90
12520;DHT22;6325;49.540;8.364;2023-04-03T06:30:24;4.60;99.90
12520;DHT22;6325;49.540;8.364;2023-04-03T06:32:51;4.40;99.90
12520;DHT22;6325;49.540;8.364;2023-04-03T06:35:18;4.70;99.90
12520;DHT22;6325;49.540;8.364;2023-04-03T06:37:46;4.00;99.90
12520;DHT22;6325;49.540;8.364;2023-04-03T06:40:19;4.50;99.90
12520;DHT22;6325;49.540;8.364;2023-04-03T06:42:48;4.20;99.90
12520;DHT22;6325;49.540;8.364;2023-04-03T06:45:15;4.50;99.90
12520;DHT22;6325;49.540;8.364;2023-04-03T06:47:42;5.10;99.90
12520;DHT22;6325;49.540;8.364;2023-04-03T06:50:10;4.60;99.90
12520;DHT22;6325;49.540;8.364;2023-04-03T06:52:39;4.10;99.90
12520;DHT22;6325;49.540;8.364;2023-04-03T06:55:08;5.30;99.90
12520;DHT22;6325;49.540;8.364;2023-04-03T06:57:35;5.00;99.90
12520;DHT22;6325;49.540;8.364;2023-04-03T07:00:05;5.10;99.90
12520;DHT22;6325;49.540;8.364;2023-04-03T07:02:32;5.40;99.90
12520;DHT22;6325;49.540;8.364;2023-04-03T07:04:59;5.10;99.90
12520;DHT22;6325;49.540;8.364;2023-04-03T07:07:26;5.40;99.90
12520;DHT22;6325;49.540;8.364;2023-04-03T07:09:53;5.10;99.90
12520;DHT22;6325;49.540;8.364;2023-04-03T07:12:20;5.80;99.90
12520;DHT22;6325;49.540;8.364;2023-04-03T07:14:48;5.20;99.90
12520;DHT22;6325;49.540;8.364;2023-04-03T07:17:16;5.30;99.90
12520;DHT22;6325;49.540;8.364;2023-04-03T07:19:43;5.50;99.90
12520;DHT22;6325;49.540;8.364;2023-04-03T07:22:09;5.40;99.90
12520;DHT22;6325;49.540;8.364;2023-04-03T07:24:37;5.90;99.90
12520;DHT22;6325;49.540;8.364;2023-04-03T07:27:04;5.70;99.90
12520;DHT22;6325;49.540;8.364;2023-04-03T07:29:34;5.60;99.90
12520;DHT22;6325;49.540;8.364;2023-04-03T07:32:01;5.70;99.90
12520;DHT22;6325;49.540;8.364;2023-04-03T07:34:29;6.10;99.90
12520;DHT22;6325;49.540;8.364;2023-04-03T07:36:56;6.30;99.90
12520;DHT22;6325;49.540;8.364;2023-04-03T07:39:23;6.10;99.90
12520;DHT22;6325;49.540;8.364;2023-04-03T07:41:50;6.50;99.90
12520;DHT22;6325;49.540;8.364;2023-04-03T07:44:17;6.60;99.90
12520;DHT22;6325;49.540;8.364;2023-04-03T07:46:44;6.20;99.90
12520;DHT22;6325;49.540;8.364;2023-04-03T07:49:12;6.30;99.90
12520;DHT22;6325;49.540;8.364;2023-04-03T07:51:40;6.90;99.90
12520;DHT22;6325;49.540;8.364;2023-04-03T07:54:07;6.90;99.90
12520;DHT22;6325;49.540;8.364;2023-04-03T07:56:34;6.00;99.90
12520;DHT22;6325;49.540;8.364;2023-04-03T07:59:01;6.80;99.90
12520;DHT22;6325;49.540;8.364;2023-04-03T08:01:28;6.60;99.90
12520;DHT22;6325;49.540;8.364;2023-04-03T08:03:58;6.70;99.90
12520;DHT22;6325;49.540;8.364;2023-04-03T08:06:25;7.30;99.90
12520;DHT22;6325;49.540;8.364;2023-04-03T08:08:53;7.00;99.90
12520;DHT22;6325;49.540;8.364;2023-04-03T08:11:21;6.90;99.90
12520;DHT22;6325;49.540;8.364;2023-04-03T08:13:49;7.40;99.90
12520;DHT22;6325;49.540;8.364;2023-04-03T08:16:18;7.90;99.90
12520;DHT22;6325;49.540;8.364;2023-04-03T08:18:47;7.90;99.90
12520;DHT22;6325;49.540;8.364;2023-04-03T08:21:14;7.60;99.90
12520;DHT22;6325;49.540;8.364;2023-04-03T08:23:41;7.70;99.90
12520;DHT22;6325;49.540;8.364;2023-04-03T08:26:11;7.80;99.90
12520;DHT22;6325;49.540;8.364;2023-04-03T08:28:38;8.40;99.90
12520;DHT22;6325;49.540;8.364;2023-04-03T08:31:08;7.60;99.90
12520;DHT22;6325;49.540;8.364;2023-04-03T08:33:37;8.50;99.90
12520;DHT22;6325;49.540;8.364;2023-04-03T08:36:05;8.60;99.90
12520;DHT22;6325;49.540;8.364;2023-04-03T08:38:33;9.20;99.90
12520;DHT22;6325;49.540;8.364;2023-04-03T08:41:06;9.00;99.90
12520;DHT22;6325;49.540;8.364;2023-04-03T08:43:48;8.90;99.90
12520;DHT22;6325;49.540;8.364;2023-04-03T08:46:23;8.90;99.90
12520;DHT22;6325;49.540;8.364;2023-04-03T08:48:51;10.10;99.90
12520;DHT22;6325;49.540;8.364;2023-04-03T08:51:20;9.40;99.90
12520;DHT22;6325;49.540;8.364;2023-04-03T08:53:55;9.50;99.90
12520;DHT22;6325;49.540;8.364;2023-04-03T08:56:24;9.60;99.90
12520;DHT22;6325;49.540;8.364;2023-04-03T08:58:56;10.00;99.90
12520;DHT22;6325;49.540;8.364;2023-04-03T09:01:28;10.10;99.90
12520;DHT22;6325;49.540;8.364;2023-04-03T09:03:56;10.40;99.90
12520;DHT22;6325;49.540;8.364;2023-04-03T09:06:26;9.90;99.90
12520;DHT22;6325;49.540;8.364;2023-04-03T09:09:06;10.20;99.90
12520;DHT22;6325;49.540;8.364;2023-04-03T09:11:46;10.20;99.90
12520;DHT22;6325;49.540;8.364;2023-04-03T09:14:22;10.30;99.90
12520;DHT22;6325;49.540;8.364;2023-04-03T09:16:55;9.80;99.90
12520;DHT22;6325;49.540;8.364;2023-04-03T09:19:30;10.40;99.90
12520;DHT22;6325;49.540;8.364;2023-04-03T09:22:12;10.50;99.90
12520;DHT22;6325;49.540;8.364;2023-04-03T09:24:41;10.50;99.90
12520;DHT22;6325;49.540;8.364;2023-04-03T09:27:11;10.60;99.90
12520;DHT22;6325;49.540;8.364;2023-04-03T09:29:42;10.20;99.90
12520;DHT22;6325;49.540;8.364;2023-04-03T09:32:22;10.40;99.90
12520;DHT22;6325;49.540;8.364;2023-04-03T09:34:53;10.40;99.90
12520;DHT22;6325;49.540;8.364;2023-04-03T09:37:35;10.70;99.90
12520;DHT22;6325;49.540;8.364;2023-04-03T09:40:03;10.80;99.90
12520;DHT22;6325;49.540;8.364;2023-04-03T09:42:32;10.20;99.90
12520;DHT22;6325;49.540;8.364;2023-04-03T09:45:02;10.40;99.90
12520;DHT22;6325;49.540;8.364;2023-04-03T09:47:30;9.80;99.90
12520;DHT22;6325;49.540;8.364;2023-04-03T09:50:18;9.70;99.90
12520;DHT22;6325;49.540;8.364;2023-04-03T09:52:47;9.90;99.90
12520;DHT22;6325;49.540;8.364;2023-04-03T09:55:16;10.10;99.90
12520;DHT22;6325;49.540;8.364;2023-04-03T09:57:43;10.20;99.90
12520;DHT22;6325;49.540;8.364;2023-04-03T10:00:22;10.30;99.90
12520;DHT22;6325;49.540;8.364;2023-04-03T10:02:52;10.50;99.90
12520;DHT22;6325;49.540;8.364;2023-04-03T10:05:30;10.60;99.90
12520;DHT22;6325;49.540;8.364;2023-04-03T10:08:22;10.70;99.90
12520;DHT22;6325;49.540;8.364;2023-04-03T10:11:08;10.70;99.90
12520;DHT22;6325;49.540;8.364;2023-04-03T10:13:35;11.10;99.90
12520;DHT22;6325;49.540;8.364;2023-04-03T10:16:07;11.10;99.90
12520;DHT22;6325;49.540;8.364;2023-04-03T10:18:40;12.00;99.90
12520;DHT22;6325;49.540;8.364;2023-04-03T10:21:14;11.70;99.90
12520;DHT22;6325;49.540;8.364;2023-04-03T10:23:45;12.20;99.90
12520;DHT22;6325;49.540;8.364;2023-04-03T10:26:20;12.00;99.90
12520;DHT22;6325;49.540;8.364;2023-04-03T10:28:55;12.40;98.90
12520;DHT22;6325;49.540;8.364;2023-04-03T10:31:29;11.50;99.40
12520;DHT22;6325;49.540;8.364;2023-04-03T10:34:05;11.40;99.70
12520;DHT22;6325;49.540;8.364;2023-04-03T10:36:37;11.10;98.90
12520;DHT22;6325;49.540;8.364;2023-04-03T10:39:13;11.00;99.60
12520;DHT22;6325;49.540;8.364;2023-04-03T10:41:55;10.90;99.90
12520;DHT22;6325;49.540;8.364;2023-04-03T10:44:34;11.00;99.90
12520;DHT22;6325;49.540;8.364;2023-04-03T10:47:09;11.30;99.90
12520;DHT22;6325;49.540;8.364;2023-04-03T10:49:45;10.90;98.60
12520;DHT22;6325;49.540;8.364;2023-04-03T10:52:20;10.90;98.60
12520;DHT22;6325;49.540;8.364;2023-04-03T10:54:57;10.80;99.10
12520;DHT22;6325;49.540;8.364;2023-04-03T10:57:28;10.90;99.90
12520;DHT22;6325;49.540;8.364;2023-04-03T10:59:59;11.00;98.70
12520;DHT22;6325;49.540;8.364;2023-04-03T11:02:31;11.00;97.60
12520;DHT22;6325;49.540;8.364;2023-04-03T11:05:02;11.70;98.20
12520;DHT22;6325;49.540;8.364;2023-04-03T11:07:38;11.40;99.60
12520;DHT22;6325;49.540;8.364;2023-04-03T11:10:13;11.80;99.90
12520;DHT22;6325;49.540;8.364;2023-04-03T11:12:44;12.80;98.60
12520;DHT22;6325;49.540;8.364;2023-04-03T11:15:15;12.30;96.00
12520;DHT22;6325;49.540;8.364;2023-04-03T11:17:48;12.40;93.20
12520;DHT22;6325;49.540;8.364;2023-04-03T11:20:18;12.20;94.20
12520;DHT22;6325;49.540;8.364;2023-04-03T11:22:50;12.10;94.60
12520;DHT22;6325;49.540;8.364;2023-04-03T11:25:20;11.70;94.00
12520;DHT22;6325;49.540;8.364;2023-04-03T11:27:54;11.50;94.00
12520;DHT22;6325;49.540;8.364;2023-04-03T11:30:24;11.40;94.00
12520;DHT22;6325;49.540;8.364;2023-04-03T11:33:10;10.70;92.10
12520;DHT22;6325;49.540;8.364;2023-04-03T11:35:43;11.30;92.90
12520;DHT22;6325;49.540;8.364;2023-04-03T11:38:19;11.00;95.00
12520;DHT22;6325;49.540;8.364;2023-04-03T11:40:50;11.50;94.30
12520;DHT22;6325;49.540;8.364;2023-04-03T11:43:22;11.40;93.00
12520;DHT22;6325;49.540;8.364;2023-04-03T11:45:53;11.70;92.90
12520;DHT22;6325;49.540;8.364;2023-04-03T11:51:53;12.20;93.80
12520;DHT22;6325;49.540;8.364;2023-04-03T11:54:44;12.30;92.20
12520;DHT22;6325;49.540;8.364;2023-04-03T11:57:43;11.90;94.30
12520;DHT22;6325;49.540;8.364;2023-04-03T12:09:29;12.40;92.30
12520;DHT22;6325;49.540;8.364;2023-04-03T12:11:57;12.70;90.80
12520;DHT22;6325;49.540;8.364;2023-04-03T12:14:25;12.00;90.00
12520;DHT22;6325;49.540;8.364;2023-04-03T12:16:54;12.20;90.80
12520;DHT22;6325;49.540;8.364;2023-04-03T12:19:40;12.20;91.80
12520;DHT22;6325;49.540;8.364;2023-04-03T12:22:16;12.10;92.10
12520;DHT22;6325;49.540;8.364;2023-04-03T12:24:47;12.00;91.20
12520;DHT22;6325;49.540;8.364;2023-04-03T12:27:33;11.80;91.50
12520;DHT22;6325;49.540;8.364;2023-04-03T12:30:12;11.30;91.10
12520;DHT22;6325;49.540;8.364;2023-04-03T12:35:42;11.70;91.90
12520;DHT22;6325;49.540;8.364;2023-04-03T12:38:32;11.50;92.30
12520;DHT22;6325;49.540;8.364;2023-04-03T12:41:21;11.60;91.50
12520;DHT22;6325;49.540;8.364;2023-04-03T12:44:02;11.60;91.80
12520;DHT22;6325;49.540;8.364;2023-04-03T12:46:36;11.90;92.50
12520;DHT22;6325;49.540;8.364;2023-04-03T12:49:14;11.30;90.90
12520;DHT22;6325;49.540;8.364;2023-04-03T12:51:46;11.40;90.40
12520;DHT22;6325;49.540;8.364;2023-04-03T12:54:15;11.80;92.50
12520;DHT22;6325;49.540;8.364;2023-04-03T12:56:44;11.50;92.10
12520;DHT22;6325;49.540;8.364;2023-04-03T12:59:16;11.50;93.40
12520;DHT22;6325;49.540;8.364;2023-04-03T13:01:43;11.10;92.20
12520;DHT22;6325;49.540;8.364;2023-04-03T13:04:11;11.60;94.30
12520;DHT22;6325;49.540;8.364;2023-04-03T13:06:40;12.20;95.00
12520;DHT22;6325;49.540;8.364;2023-04-03T13:09:19;12.20;93.70
12520;DHT22;6325;49.540;8.364;2023-04-03T13:11:50;12.80;92.90
12520;DHT22;6325;49.540;8.364;2023-04-03T13:14:20;12.90;92.20
12520;DHT22;6325;49.540;8.364;2023-04-03T13:16:54;13.40;90.60
12520;DHT22;6325;49.540;8.364;2023-04-03T13:19:23;13.70;90.80
12520;DHT22;6325;49.540;8.364;2023-04-03T13:21:52;14.00;87.90
12520;DHT22;6325;49.540;8.364;2023-04-03T13:24:22;13.50;83.40
12520;DHT22;6325;49.540;8.364;2023-04-03T13:26:51;12.90;84.10
12520;DHT22;6325;49.540;8.364;2023-04-03T13:29:23;12.50;87.60
12520;DHT22;6325;49.540;8.364;2023-04-03T13:31:53;12.70;90.00
12520;DHT22;6325;49.540;8.364;2023-04-03T13:34:22;12.50;88.30
12520;DHT22;6325;49.540;8.364;2023-04-03T13:36:57;13.40;89.80
12520;DHT22;6325;49.540;8.364;2023-04-03T13:39:25;13.60;91.80
12520;DHT22;6325;49.540;8.364;2023-04-03T13:41:55;14.30;89.80
12520;DHT22;6325;49.540;8.364;2023-04-03T13:44:29;14.60;84.20
12520;DHT22;6325;49.540;8.364;2023-04-03T13:46:58;15.00;81.40
12520;DHT22;6325;49.540;8.364;2023-04-03T13:49:31;15.50;84.80
12520;DHT22;6325;49.540;8.364;2023-04-03T13:51:58;15.90;80.60
12520;DHT22;6325;49.540;8.364;2023-04-03T13:54:30;16.80;73.10
12520;DHT22;6325;49.540;8.364;2023-04-03T13:57:00;16.40;73.20
12520;DHT22;6325;49.540;8.364;2023-04-03T13:59:29;15.70;73.60
12520;DHT22;6325;49.540;8.364;2023-04-03T14:02:13;14.80;72.00
12520;DHT22;6325;49.540;8.364;2023-04-03T14:04:50;14.20;69.70
12520;DHT22;6325;49.540;8.364;2023-04-03T14:07:18;13.90;72.40
12520;DHT22;6325;49.540;8.364;2023-04-03T14:09:47;12.80;71.40
12520;DHT22;6325;49.540;8.364;2023-04-03T14:12:24;13.50;73.20
12520;DHT22;6325;49.540;8.364;2023-04-03T14:14:52;13.90;74.50
12520;DHT22;6325;49.540;8.364;2023-04-03T14:17:21;15.00;73.50
12520;DHT22;6325;49.540;8.364;2023-04-03T14:19:50;15.10;72.40
12520;DHT22;6325;49.540;8.364;2023-04-03T14:22:20;15.60;71.30
12520;DHT22;6325;49.540;8.364;2023-04-03T14:24:49;16.20;71.80
12520;DHT22;6325;49.540;8.364;2023-04-03T14:27:21;16.20;66.20
12520;DHT22;6325;49.540;8.364;2023-04-03T14:29:50;16.90;68.10
12520;DHT22;6325;49.540;8.364;2023-04-03T14:32:19;17.20;66.80
12520;DHT22;6325;49.540;8.364;2023-04-03T14:34:47;17.40;65.70
12520;DHT22;6325;49.540;8.364;2023-04-03T14:37:17;16.90;62.40
12520;DHT22;6325;49.540;8.364;2023-04-03T14:39:44;16.10;63.80
12520;DHT22;6325;49.540;8.364;2023-04-03T14:42:15;15.30;65.60
12520;DHT22;6325;49.540;8.364;2023-04-03T14:44:44;14.40;64.70
12520;DHT22;6325;49.540;8.364;2023-04-03T14:47:12;13.80;64.50
12520;DHT22;6325;49.540;8.364;2023-04-03T14:49:41;14.20;64.60
12520;DHT22;6325;49.540;8.364;2023-04-03T14:52:17;14.30;67.20
12520;DHT22;6325;49.540;8.364;2023-04-03T14:54:44;14.80;62.90
12520;DHT22;6325;49.540;8.364;2023-04-03T14:57:13;15.00;63.60
12520;DHT22;6325;49.540;8.364;2023-04-03T14:59:41;15.30;62.50
12520;DHT22;6325;49.540;8.364;2023-04-03T15:02:29;15.30;61.30
12520;DHT22;6325;49.540;8.364;2023-04-03T15:04:57;15.70;64.90
12520;DHT22;6325;49.540;8.364;2023-04-03T15:07:26;16.10;63.20
12520;DHT22;6325;49.540;8.364;2023-04-03T15:09:53;15.40;63.00
12520;DHT22;6325;49.540;8.364;2023-04-03T15:12:22;14.40;58.90
12520;DHT22;6325;49.540;8.364;2023-04-03T15:14:49;14.30;58.20
12520;DHT22;6325;49.540;8.364;2023-04-03T15:17:19;14.00;58.40
12520;DHT22;6325;49.540;8.364;2023-04-03T15:19:48;14.90;60.10
12520;DHT22;6325;49.540;8.364;2023-04-03T15:22:16;14.80;59.70
12520;DHT22;6325;49.540;8.364;2023-04-03T15:24:44;15.90;61.80
12520;DHT22;6325;49.540;8.364;2023-04-03T15:27:13;16.90;58.90
12520;DHT22;6325;49.540;8.364;2023-04-03T15:29:41;17.70;59.60
12520;DHT22;6325;49.540;8.364;2023-04-03T15:32:09;18.30;55.90
12520;DHT22;6325;49.540;8.364;2023-04-03T15:34:40;18.90;54.40
12520;DHT22;6325;49.540;8.364;2023-04-03T15:37:07;19.00;55.10
12520;DHT22;6325;49.540;8.364;2023-04-03T15:39:34;18.50;51.40
12520;DHT22;6325;49.540;8.364;2023-04-03T15:42:00;19.10;50.10
12520;DHT22;6325;49.540;8.364;2023-04-03T15:44:32;18.80;50.40
12520;DHT22;6325;49.540;8.364;2023-04-03T15:46:58;19.10;52.60
12520;DHT22;6325;49.540;8.364;2023-04-03T15:49:26;19.10;52.80
12520;DHT22;6325;49.540;8.364;2023-04-03T15:51:54;18.90;52.30
12520;DHT22;6325;49.540;8.364;2023-04-03T15:54:21;17.80;50.40
12520;DHT22;6325;49.540;8.364;2023-04-03T15:56:49;18.10;51.30
12520;DHT22;6325;49.540;8.364;2023-04-03T15:59:16;17.90;50.20
12520;DHT22;6325;49.540;8.364;2023-04-03T16:01:43;17.50;49.90
12520;DHT22;6325;49.540;8.364;2023-04-03T16:04:11;16.90;50.60
12520;DHT22;6325;49.540;8.364;2023-04-03T16:06:38;16.20;50.50
12520;DHT22;6325;49.540;8.364;2023-04-03T16:09:08;15.10;51.50
12520;DHT22;6325;49.540;8.364;2023-04-03T16:11:36;14.60;52.50
12520;DHT22;6325;49.540;8.364;2023-04-03T16:14:04;14.20;53.10
12520;DHT22;6325;49.540;8.364;2023-04-03T16:16:31;13.30;53.50
12520;DHT22;6325;49.540;8.364;2023-04-03T16:18:59;13.20;54.40
12520;DHT22;6325;49.540;8.364;2023-04-03T16:21:27;12.80;54.50
12520;DHT22;6325;49.540;8.364;2023-04-03T16:23:57;12.40;56.30
12520;DHT22;6325;49.540;8.364;2023-04-03T16:26:25;12.80;57.20